Quick Links (Output Below):   Max & Min Temps   /   Climate Reports   /   Zone Forecasts
River Forecasts   /   Forestry Forecasts   /   Aviation Forecasts   /   Radars   /   Features

Terminal Aerodrome Forecast (Texarkana)

Pick a Site:
Arkadelphia | El Dorado | Fayetteville | Fort Smith | Harrison | Highfill | Hot Springs | Jonesboro
Little Rock | Monticello | Mountain Home | Pine Bluff | Texarkana
 Forecast 

KTXK 051518Z 0515/0612 03010G18KT P6SM SKC
     FM060000 VRB03KT P6SM SKC=


 Latest METARs (Observations) 
How to Decode METARs
15Z KTXK 051453Z 03010KT 10SM CLR M03/M06 A3056 RMK AO2 SLP352 60000
         T10281056 53042
         
14Z KTXK 051353Z 02011KT 10SM CLR M03/M06 A3053 RMK AO2 SLP341
         T10331056
         
13Z KTXK 051253Z 03008KT 10SM BKN019 OVC023 M04/M05 A3047 RMK AO2
         UPB02E08SNE02 SLP321 P0000 T10391050
         
12Z KTXK 051153Z 03011KT 5SM -SN BR FEW010 BKN016 BKN021 M03/M05 A3044
         RMK AO2 SLP310 P0000 60026 70268 T10331050 10000 21033
         51038
         
11Z KTXK 051053Z AUTO 01012G19KT 5SM -SN BR FEW021 BKN045 OVC070
         M03/M04 A3040 RMK AO2 SLP296 P0003 T10331044
         
10Z KTXK 050953Z AUTO 02010G19KT 1/2SM SN FZFG VV007 M03/M03 A3038 RMK
         AO2 SLP287 P0007 T10331033
         
04Z KTXK 050353Z AUTO 02014G25KT 3SM +RA BR BKN014 OVC036 01/01 A3015
         RMK AO2 SLP211 P0017 T00110006
         
03Z KTXK 050253Z 03015G23KT 5SM RA BR SCT012 OVC040 02/01 A3013 RMK
         AO2 PK WND 04026/0237 SLP203 P0014 60049 T00170006 50017
         
02Z KTXK 050153Z 03013G22KT 5SM RA BR FEW010 SCT024 OVC029 02/02 A3012
         RMK AO2 PK WND 04029/0128 LTG DSNT E TSB01E40 SLP198 P0019
         T00220017
         
01Z KTXK 050053Z 02014G24KT 3SM VCTS +RA BR BKN009 OVC015 03/03 A3008
         RMK AO2 PK WND 04027/0014 LTG DSNT SW-NW SLP185 P0016
         T00330028
         
***** Today's Observations (Above) *****


Back to Main Page
http://www.srh.noaa.gov/lzk/qfcst.php

USA.gov is the U.S. government's official web portal to all federal, state and local government web resources and services.